sensor_id;sensor_type;location;lat;lon;timestamp;P1;durP1;ratioP1;P2;durP2;ratioP2
31061;SDS011;17724;53.546;9.974;2022-09-09T00:00:40;21.33;;;19.00;;
31061;SDS011;17724;53.546;9.974;2022-09-09T00:04:58;23.67;;;19.33;;
31061;SDS011;17724;53.546;9.974;2022-09-09T00:09:04;23.60;;;19.50;;
31061;SDS011;17724;53.546;9.974;2022-09-09T00:13:19;21.43;;;19.10;;
31061;SDS011;17724;53.546;9.974;2022-09-09T00:17:46;25.97;;;22.00;;
31061;SDS011;17724;53.546;9.974;2022-09-09T00:30:24;25.23;;;20.57;;
31061;SDS011;17724;53.546;9.974;2022-09-09T00:34:31;25.77;;;21.40;;
31061;SDS011;17724;53.546;9.974;2022-09-09T00:38:33;27.37;;;23.20;;
31061;SDS011;17724;53.546;9.974;2022-09-09T00:42:41;24.80;;;20.10;;
31061;SDS011;17724;53.546;9.974;2022-09-09T00:46:49;23.60;;;20.30;;
31061;SDS011;17724;53.546;9.974;2022-09-09T00:51:01;22.73;;;18.23;;
31061;SDS011;17724;53.546;9.974;2022-09-09T00:59:24;22.87;;;18.90;;
31061;SDS011;17724;53.546;9.974;2022-09-09T01:03:35;23.13;;;19.80;;
31061;SDS011;17724;53.546;9.974;2022-09-09T01:07:37;21.70;;;18.33;;
31061;SDS011;17724;53.546;9.974;2022-09-09T01:16:00;22.37;;;17.10;;
31061;SDS011;17724;53.546;9.974;2022-09-09T01:20:05;22.60;;;17.50;;
31061;SDS011;17724;53.546;9.974;2022-09-09T01:24:21;21.80;;;17.83;;
31061;SDS011;17724;53.546;9.974;2022-09-09T01:28:27;22.60;;;17.60;;
31061;SDS011;17724;53.546;9.974;2022-09-09T01:40:56;22.10;;;17.37;;
31061;SDS011;17724;53.546;9.974;2022-09-09T01:44:58;24.60;;;17.80;;
31061;SDS011;17724;53.546;9.974;2022-09-09T01:48:58;22.47;;;17.30;;
31061;SDS011;17724;53.546;9.974;2022-09-09T01:53:02;23.20;;;17.37;;
31061;SDS011;17724;53.546;9.974;2022-09-09T01:57:18;24.50;;;19.07;;
31061;SDS011;17724;53.546;9.974;2022-09-09T02:05:41;19.73;;;14.87;;
31061;SDS011;17724;53.546;9.974;2022-09-09T02:09:57;20.13;;;16.10;;
31061;SDS011;17724;53.546;9.974;2022-09-09T02:14:25;20.63;;;15.50;;
31061;SDS011;17724;53.546;9.974;2022-09-09T02:18:38;21.47;;;15.40;;
31061;SDS011;17724;53.546;9.974;2022-09-09T02:22:45;18.83;;;15.10;;
31061;SDS011;17724;53.546;9.974;2022-09-09T02:26:50;19.10;;;15.00;;
31061;SDS011;17724;53.546;9.974;2022-09-09T02:30:55;20.37;;;15.67;;
31061;SDS011;17724;53.546;9.974;2022-09-09T02:34:57;21.00;;;15.90;;
31061;SDS011;17724;53.546;9.974;2022-09-09T02:39:00;18.77;;;14.40;;
31061;SDS011;17724;53.546;9.974;2022-09-09T02:43:02;20.80;;;15.87;;
31061;SDS011;17724;53.546;9.974;2022-09-09T02:51:28;18.60;;;14.93;;
31061;SDS011;17724;53.546;9.974;2022-09-09T02:55:35;18.70;;;13.80;;
31061;SDS011;17724;53.546;9.974;2022-09-09T02:59:40;17.30;;;13.53;;
31061;SDS011;17724;53.546;9.974;2022-09-09T03:03:41;18.10;;;14.53;;
31061;SDS011;17724;53.546;9.974;2022-09-09T03:07:49;17.70;;;13.83;;
31061;SDS011;17724;53.546;9.974;2022-09-09T03:11:50;17.97;;;13.10;;
31061;SDS011;17724;53.546;9.974;2022-09-09T03:15:50;16.73;;;12.70;;
31061;SDS011;17724;53.546;9.974;2022-09-09T03:19:51;17.83;;;13.57;;
31061;SDS011;17724;53.546;9.974;2022-09-09T03:23:54;17.73;;;13.20;;
31061;SDS011;17724;53.546;9.974;2022-09-09T03:27:55;16.17;;;11.80;;
31061;SDS011;17724;53.546;9.974;2022-09-09T03:31:56;17.17;;;12.60;;
31061;SDS011;17724;53.546;9.974;2022-09-09T03:35:56;17.17;;;13.57;;
31061;SDS011;17724;53.546;9.974;2022-09-09T03:39:57;17.47;;;13.00;;
31061;SDS011;17724;53.546;9.974;2022-09-09T03:43:59;17.00;;;12.73;;
31061;SDS011;17724;53.546;9.974;2022-09-09T03:48:00;17.73;;;14.10;;
31061;SDS011;17724;53.546;9.974;2022-09-09T03:52:01;17.53;;;12.53;;
31061;SDS011;17724;53.546;9.974;2022-09-09T03:56:01;18.07;;;12.23;;
31061;SDS011;17724;53.546;9.974;2022-09-09T04:00:03;22.27;;;13.07;;
31061;SDS011;17724;53.546;9.974;2022-09-09T04:04:06;16.67;;;12.93;;
31061;SDS011;17724;53.546;9.974;2022-09-09T04:08:07;17.13;;;11.73;;
31061;SDS011;17724;53.546;9.974;2022-09-09T04:12:08;18.50;;;12.60;;
31061;SDS011;17724;53.546;9.974;2022-09-09T04:16:09;16.33;;;11.53;;
31061;SDS011;17724;53.546;9.974;2022-09-09T04:20:11;17.77;;;12.20;;
31061;SDS011;17724;53.546;9.974;2022-09-09T04:24:12;16.40;;;12.13;;
31061;SDS011;17724;53.546;9.974;2022-09-09T04:28:13;15.80;;;11.80;;
31061;SDS011;17724;53.546;9.974;2022-09-09T04:32:14;14.83;;;10.57;;
31061;SDS011;17724;53.546;9.974;2022-09-09T04:36:15;14.53;;;10.70;;
31061;SDS011;17724;53.546;9.974;2022-09-09T04:40:15;16.07;;;10.87;;
31061;SDS011;17724;53.546;9.974;2022-09-09T04:44:16;15.10;;;11.23;;
31061;SDS011;17724;53.546;9.974;2022-09-09T04:48:17;13.60;;;9.60;;
31061;SDS011;17724;53.546;9.974;2022-09-09T04:52:17;14.83;;;9.47;;
31061;SDS011;17724;53.546;9.974;2022-09-09T04:56:18;13.30;;;8.77;;
31061;SDS011;17724;53.546;9.974;2022-09-09T05:00:20;13.10;;;9.17;;
31061;SDS011;17724;53.546;9.974;2022-09-09T05:04:20;14.37;;;8.17;;
31061;SDS011;17724;53.546;9.974;2022-09-09T05:08:21;12.70;;;7.77;;
31061;SDS011;17724;53.546;9.974;2022-09-09T05:12:23;12.70;;;8.30;;
31061;SDS011;17724;53.546;9.974;2022-09-09T05:16:25;13.93;;;9.10;;
31061;SDS011;17724;53.546;9.974;2022-09-09T05:20:26;14.93;;;8.70;;
31061;SDS011;17724;53.546;9.974;2022-09-09T05:24:27;12.97;;;7.80;;
31061;SDS011;17724;53.546;9.974;2022-09-09T05:28:27;14.00;;;7.90;;
31061;SDS011;17724;53.546;9.974;2022-09-09T05:32:29;12.17;;;8.10;;
31061;SDS011;17724;53.546;9.974;2022-09-09T05:36:33;17.73;;;8.33;;
31061;SDS011;17724;53.546;9.974;2022-09-09T05:40:33;12.23;;;6.60;;
31061;SDS011;17724;53.546;9.974;2022-09-09T05:44:33;13.27;;;7.73;;
31061;SDS011;17724;53.546;9.974;2022-09-09T05:48:41;15.50;;;9.10;;
31061;SDS011;17724;53.546;9.974;2022-09-09T05:52:42;11.80;;;6.73;;
31061;SDS011;17724;53.546;9.974;2022-09-09T05:56:44;15.07;;;7.77;;
31061;SDS011;17724;53.546;9.974;2022-09-09T06:00:45;14.43;;;8.53;;
31061;SDS011;17724;53.546;9.974;2022-09-09T06:04:45;12.93;;;7.50;;
31061;SDS011;17724;53.546;9.974;2022-09-09T06:08:46;13.47;;;7.30;;
31061;SDS011;17724;53.546;9.974;2022-09-09T06:12:47;13.10;;;7.60;;
31061;SDS011;17724;53.546;9.974;2022-09-09T06:16:47;11.27;;;6.80;;
31061;SDS011;17724;53.546;9.974;2022-09-09T06:20:54;12.70;;;6.60;;
31061;SDS011;17724;53.546;9.974;2022-09-09T06:24:56;15.57;;;7.23;;
31061;SDS011;17724;53.546;9.974;2022-09-09T06:28:57;11.23;;;5.40;;
31061;SDS011;17724;53.546;9.974;2022-09-09T06:32:58;11.73;;;6.30;;
31061;SDS011;17724;53.546;9.974;2022-09-09T06:36:58;12.23;;;6.63;;
31061;SDS011;17724;53.546;9.974;2022-09-09T06:41:00;10.93;;;6.50;;
31061;SDS011;17724;53.546;9.974;2022-09-09T06:45:01;12.47;;;6.90;;
31061;SDS011;17724;53.546;9.974;2022-09-09T06:49:02;11.63;;;5.73;;
31061;SDS011;17724;53.546;9.974;2022-09-09T06:53:03;12.03;;;5.70;;
31061;SDS011;17724;53.546;9.974;2022-09-09T06:57:03;13.30;;;6.70;;
31061;SDS011;17724;53.546;9.974;2022-09-09T07:01:04;11.37;;;5.80;;
31061;SDS011;17724;53.546;9.974;2022-09-09T07:05:06;12.13;;;5.53;;
31061;SDS011;17724;53.546;9.974;2022-09-09T07:09:08;12.90;;;6.23;;
31061;SDS011;17724;53.546;9.974;2022-09-09T07:13:10;11.87;;;5.70;;
31061;SDS011;17724;53.546;9.974;2022-09-09T07:17:10;10.40;;;5.13;;
31061;SDS011;17724;53.546;9.974;2022-09-09T07:21:11;10.97;;;5.30;;
31061;SDS011;17724;53.546;9.974;2022-09-09T07:25:13;13.50;;;6.70;;
31061;SDS011;17724;53.546;9.974;2022-09-09T07:29:14;11.73;;;6.37;;
31061;SDS011;17724;53.546;9.974;2022-09-09T07:33:18;11.77;;;6.37;;
31061;SDS011;17724;53.546;9.974;2022-09-09T07:37:20;11.53;;;5.47;;
31061;SDS011;17724;53.546;9.974;2022-09-09T07:41:24;11.43;;;5.03;;
31061;SDS011;17724;53.546;9.974;2022-09-09T07:45:26;12.43;;;4.63;;
31061;SDS011;17724;53.546;9.974;2022-09-09T07:49:28;14.67;;;5.80;;
31061;SDS011;17724;53.546;9.974;2022-09-09T07:53:28;11.40;;;5.63;;
31061;SDS011;17724;53.546;9.974;2022-09-09T07:57:30;10.60;;;4.23;;
31061;SDS011;17724;53.546;9.974;2022-09-09T08:01:35;11.70;;;5.17;;
31061;SDS011;17724;53.546;9.974;2022-09-09T08:05:39;12.90;;;5.00;;
31061;SDS011;17724;53.546;9.974;2022-09-09T08:09:39;11.73;;;4.47;;
31061;SDS011;17724;53.546;9.974;2022-09-09T08:13:40;10.60;;;4.60;;
31061;SDS011;17724;53.546;9.974;2022-09-09T08:17:41;11.50;;;5.27;;
31061;SDS011;17724;53.546;9.974;2022-09-09T08:21:44;10.20;;;4.23;;
31061;SDS011;17724;53.546;9.974;2022-09-09T08:25:44;12.17;;;5.10;;
31061;SDS011;17724;53.546;9.974;2022-09-09T08:29:45;13.00;;;5.47;;
31061;SDS011;17724;53.546;9.974;2022-09-09T08:33:46;11.90;;;3.33;;
31061;SDS011;17724;53.546;9.974;2022-09-09T08:37:47;11.50;;;4.50;;
31061;SDS011;17724;53.546;9.974;2022-09-09T08:46:07;11.10;;;3.40;;
31061;SDS011;17724;53.546;9.974;2022-09-09T08:54:31;12.07;;;2.70;;
31061;SDS011;17724;53.546;9.974;2022-09-09T08:58:35;10.87;;;3.57;;
31061;SDS011;17724;53.546;9.974;2022-09-09T09:11:48;11.60;;;2.90;;
31061;SDS011;17724;53.546;9.974;2022-09-09T09:15:55;11.77;;;3.00;;
31061;SDS011;17724;53.546;9.974;2022-09-09T09:20:11;9.30;;;3.20;;
31061;SDS011;17724;53.546;9.974;2022-09-09T09:24:19;12.30;;;2.97;;
31061;SDS011;17724;53.546;9.974;2022-09-09T09:28:26;9.80;;;2.87;;
31061;SDS011;17724;53.546;9.974;2022-09-09T09:32:30;10.30;;;2.37;;
31061;SDS011;17724;53.546;9.974;2022-09-09T09:36:43;11.20;;;2.70;;
31061;SDS011;17724;53.546;9.974;2022-09-09T09:40:57;9.30;;;2.10;;
31061;SDS011;17724;53.546;9.974;2022-09-09T09:46:00;10.57;;;2.73;;
31061;SDS011;17724;53.546;9.974;2022-09-09T09:49:32;8.47;;;2.43;;
31061;SDS011;17724;53.546;9.974;2022-09-09T09:53:34;10.13;;;2.93;;
31061;SDS011;17724;53.546;9.974;2022-09-09T09:57:38;10.13;;;3.00;;
31061;SDS011;17724;53.546;9.974;2022-09-09T10:01:39;11.73;;;2.20;;
31061;SDS011;17724;53.546;9.974;2022-09-09T10:05:44;9.30;;;2.50;;
31061;SDS011;17724;53.546;9.974;2022-09-09T10:09:47;10.07;;;2.60;;
31061;SDS011;17724;53.546;9.974;2022-09-09T10:18:24;11.20;;;2.37;;
31061;SDS011;17724;53.546;9.974;2022-09-09T10:22:37;10.13;;;2.07;;
31061;SDS011;17724;53.546;9.974;2022-09-09T10:26:48;9.47;;;1.80;;
31061;SDS011;17724;53.546;9.974;2022-09-09T10:49:13;12.43;;;1.93;;
31061;SDS011;17724;53.546;9.974;2022-09-09T11:01:57;10.00;;;1.67;;
31061;SDS011;17724;53.546;9.974;2022-09-09T11:06:06;9.37;;;1.70;;
31061;SDS011;17724;53.546;9.974;2022-09-09T11:10:21;9.53;;;1.40;;
31061;SDS011;17724;53.546;9.974;2022-09-09T11:14:36;10.80;;;1.30;;
31061;SDS011;17724;53.546;9.974;2022-09-09T11:18:42;11.67;;;1.30;;
31061;SDS011;17724;53.546;9.974;2022-09-09T11:22:55;10.17;;;1.60;;
31061;SDS011;17724;53.546;9.974;2022-09-09T11:27:07;9.40;;;1.40;;
31061;SDS011;17724;53.546;9.974;2022-09-09T11:31:28;11.73;;;3.57;;
31061;SDS011;17724;53.546;9.974;2022-09-09T11:44:17;11.33;;;1.73;;
31061;SDS011;17724;53.546;9.974;2022-09-09T11:48:34;10.10;;;1.60;;
31061;SDS011;17724;53.546;9.974;2022-09-09T11:52:38;9.60;;;1.87;;
31061;SDS011;17724;53.546;9.974;2022-09-09T11:56:45;10.50;;;2.27;;
31061;SDS011;17724;53.546;9.974;2022-09-09T12:00:47;9.57;;;1.87;;
31061;SDS011;17724;53.546;9.974;2022-09-09T12:05:00;10.30;;;2.20;;
31061;SDS011;17724;53.546;9.974;2022-09-09T12:09:07;10.00;;;2.10;;
31061;SDS011;17724;53.546;9.974;2022-09-09T12:17:21;12.90;;;2.77;;
31061;SDS011;17724;53.546;9.974;2022-09-09T12:25:35;10.90;;;2.03;;
31061;SDS011;17724;53.546;9.974;2022-09-09T12:30:04;10.77;;;2.00;;
31061;SDS011;17724;53.546;9.974;2022-09-09T12:34:15;9.97;;;2.13;;
31061;SDS011;17724;53.546;9.974;2022-09-09T12:38:39;11.27;;;2.40;;
31061;SDS011;17724;53.546;9.974;2022-09-09T12:42:40;11.27;;;2.67;;
31061;SDS011;17724;53.546;9.974;2022-09-09T12:46:41;10.77;;;3.03;;
31061;SDS011;17724;53.546;9.974;2022-09-09T12:50:46;8.87;;;2.50;;
31061;SDS011;17724;53.546;9.974;2022-09-09T12:54:50;10.20;;;2.50;;
31061;SDS011;17724;53.546;9.974;2022-09-09T12:58:54;10.73;;;2.87;;
31061;SDS011;17724;53.546;9.974;2022-09-09T13:02:56;10.50;;;2.67;;
31061;SDS011;17724;53.546;9.974;2022-09-09T13:07:05;10.53;;;3.17;;
31061;SDS011;17724;53.546;9.974;2022-09-09T13:11:09;10.90;;;2.97;;
31061;SDS011;17724;53.546;9.974;2022-09-09T13:15:24;10.53;;;3.00;;
31061;SDS011;17724;53.546;9.974;2022-09-09T13:19:29;13.40;;;3.40;;
31061;SDS011;17724;53.546;9.974;2022-09-09T13:23:35;14.73;;;4.93;;
31061;SDS011;17724;53.546;9.974;2022-09-09T13:27:40;15.57;;;3.23;;
31061;SDS011;17724;53.546;9.974;2022-09-09T13:31:42;12.60;;;4.13;;
31061;SDS011;17724;53.546;9.974;2022-09-09T13:39:51;14.03;;;4.03;;
31061;SDS011;17724;53.546;9.974;2022-09-09T13:43:53;10.27;;;4.60;;
31061;SDS011;17724;53.546;9.974;2022-09-09T13:47:55;12.30;;;4.10;;
31061;SDS011;17724;53.546;9.974;2022-09-09T13:52:08;13.37;;;4.77;;
31061;SDS011;17724;53.546;9.974;2022-09-09T13:56:11;12.93;;;4.00;;
31061;SDS011;17724;53.546;9.974;2022-09-09T14:00:12;11.20;;;4.47;;
31061;SDS011;17724;53.546;9.974;2022-09-09T14:04:13;10.37;;;4.10;;
31061;SDS011;17724;53.546;9.974;2022-09-09T14:08:24;10.40;;;3.67;;
31061;SDS011;17724;53.546;9.974;2022-09-09T14:12:26;10.30;;;4.20;;
31061;SDS011;17724;53.546;9.974;2022-09-09T14:16:27;13.83;;;4.03;;
31061;SDS011;17724;53.546;9.974;2022-09-09T14:20:27;13.30;;;4.20;;
31061;SDS011;17724;53.546;9.974;2022-09-09T14:24:28;11.50;;;3.73;;
31061;SDS011;17724;53.546;9.974;2022-09-09T14:28:28;12.80;;;4.10;;
31061;SDS011;17724;53.546;9.974;2022-09-09T14:32:29;23.60;;;10.90;;
31061;SDS011;17724;53.546;9.974;2022-09-09T14:36:29;11.27;;;3.90;;
31061;SDS011;17724;53.546;9.974;2022-09-09T14:40:30;9.60;;;2.60;;
31061;SDS011;17724;53.546;9.974;2022-09-09T14:44:31;18.80;;;10.00;;
31061;SDS011;17724;53.546;9.974;2022-09-09T14:48:32;11.73;;;3.27;;
31061;SDS011;17724;53.546;9.974;2022-09-09T14:52:33;11.33;;;3.23;;
31061;SDS011;17724;53.546;9.974;2022-09-09T14:56:35;14.63;;;6.20;;
31061;SDS011;17724;53.546;9.974;2022-09-09T15:00:35;10.53;;;3.47;;
31061;SDS011;17724;53.546;9.974;2022-09-09T15:04:36;9.20;;;2.30;;
31061;SDS011;17724;53.546;9.974;2022-09-09T15:08:36;8.80;;;2.00;;
31061;SDS011;17724;53.546;9.974;2022-09-09T15:12:38;8.27;;;1.80;;
31061;SDS011;17724;53.546;9.974;2022-09-09T15:16:39;8.70;;;2.03;;
31061;SDS011;17724;53.546;9.974;2022-09-09T15:20:44;10.00;;;2.97;;
31061;SDS011;17724;53.546;9.974;2022-09-09T15:24:46;9.73;;;2.73;;
31061;SDS011;17724;53.546;9.974;2022-09-09T15:28:47;9.57;;;3.00;;
31061;SDS011;17724;53.546;9.974;2022-09-09T15:32:49;9.90;;;2.83;;
31061;SDS011;17724;53.546;9.974;2022-09-09T15:36:50;9.57;;;3.23;;
31061;SDS011;17724;53.546;9.974;2022-09-09T15:40:54;10.77;;;3.80;;
31061;SDS011;17724;53.546;9.974;2022-09-09T15:44:55;8.97;;;2.47;;
31061;SDS011;17724;53.546;9.974;2022-09-09T15:49:03;10.07;;;3.60;;
31061;SDS011;17724;53.546;9.974;2022-09-09T15:53:10;10.80;;;4.17;;
31061;SDS011;17724;53.546;9.974;2022-09-09T15:57:11;8.60;;;2.00;;
31061;SDS011;17724;53.546;9.974;2022-09-09T16:01:13;7.83;;;1.40;;
31061;SDS011;17724;53.546;9.974;2022-09-09T16:05:14;7.63;;;1.20;;
31061;SDS011;17724;53.546;9.974;2022-09-09T16:09:14;8.70;;;1.30;;
31061;SDS011;17724;53.546;9.974;2022-09-09T16:13:15;10.17;;;1.30;;
31061;SDS011;17724;53.546;9.974;2022-09-09T16:17:15;10.47;;;2.80;;
31061;SDS011;17724;53.546;9.974;2022-09-09T16:21:20;9.37;;;2.30;;
31061;SDS011;17724;53.546;9.974;2022-09-09T16:25:31;12.20;;;6.10;;
31061;SDS011;17724;53.546;9.974;2022-09-09T16:29:32;13.77;;;8.20;;
31061;SDS011;17724;53.546;9.974;2022-09-09T16:33:32;11.33;;;2.50;;
31061;SDS011;17724;53.546;9.974;2022-09-09T16:37:33;8.40;;;1.50;;
31061;SDS011;17724;53.546;9.974;2022-09-09T16:41:34;9.13;;;2.70;;
31061;SDS011;17724;53.546;9.974;2022-09-09T16:45:40;15.50;;;9.13;;
31061;SDS011;17724;53.546;9.974;2022-09-09T16:49:45;15.77;;;6.97;;
31061;SDS011;17724;53.546;9.974;2022-09-09T16:53:45;9.13;;;2.67;;
31061;SDS011;17724;53.546;9.974;2022-09-09T16:57:46;9.50;;;2.17;;
31061;SDS011;17724;53.546;9.974;2022-09-09T17:01:50;9.40;;;2.60;;
31061;SDS011;17724;53.546;9.974;2022-09-09T17:05:51;8.47;;;1.57;;
31061;SDS011;17724;53.546;9.974;2022-09-09T17:09:51;9.73;;;2.00;;
31061;SDS011;17724;53.546;9.974;2022-09-09T17:13:53;8.37;;;1.47;;
31061;SDS011;17724;53.546;9.974;2022-09-09T17:17:54;9.23;;;1.77;;
31061;SDS011;17724;53.546;9.974;2022-09-09T17:21:55;8.13;;;1.70;;
31061;SDS011;17724;53.546;9.974;2022-09-09T17:25:57;9.30;;;2.27;;
31061;SDS011;17724;53.546;9.974;2022-09-09T17:29:58;13.20;;;7.20;;
31061;SDS011;17724;53.546;9.974;2022-09-09T17:33:58;9.40;;;2.90;;
31061;SDS011;17724;53.546;9.974;2022-09-09T17:37:59;9.73;;;2.47;;
31061;SDS011;17724;53.546;9.974;2022-09-09T17:41:59;9.37;;;2.40;;
31061;SDS011;17724;53.546;9.974;2022-09-09T17:46:11;8.50;;;2.03;;
31061;SDS011;17724;53.546;9.974;2022-09-09T17:50:13;30.83;;;26.63;;
31061;SDS011;17724;53.546;9.974;2022-09-09T17:54:14;45.17;;;40.33;;
31061;SDS011;17724;53.546;9.974;2022-09-09T17:58:19;49.30;;;44.17;;
31061;SDS011;17724;53.546;9.974;2022-09-09T18:02:21;40.67;;;33.80;;
31061;SDS011;17724;53.546;9.974;2022-09-09T18:06:22;21.13;;;17.20;;
31061;SDS011;17724;53.546;9.974;2022-09-09T18:10:28;18.03;;;11.20;;
31061;SDS011;17724;53.546;9.974;2022-09-09T18:14:29;27.63;;;23.40;;
31061;SDS011;17724;53.546;9.974;2022-09-09T18:18:30;33.50;;;26.87;;
31061;SDS011;17724;53.546;9.974;2022-09-09T18:22:31;36.13;;;32.30;;
31061;SDS011;17724;53.546;9.974;2022-09-09T18:26:33;49.73;;;44.73;;
31061;SDS011;17724;53.546;9.974;2022-09-09T18:30:37;9.70;;;3.57;;
31061;SDS011;17724;53.546;9.974;2022-09-09T18:34:39;11.83;;;5.10;;
31061;SDS011;17724;53.546;9.974;2022-09-09T18:38:40;11.63;;;5.50;;
31061;SDS011;17724;53.546;9.974;2022-09-09T18:42:41;15.70;;;11.30;;
31061;SDS011;17724;53.546;9.974;2022-09-09T18:46:42;11.27;;;3.20;;
31061;SDS011;17724;53.546;9.974;2022-09-09T18:50:43;12.60;;;7.10;;
31061;SDS011;17724;53.546;9.974;2022-09-09T18:54:44;15.67;;;11.03;;
31061;SDS011;17724;53.546;9.974;2022-09-09T18:58:45;15.80;;;9.93;;
31061;SDS011;17724;53.546;9.974;2022-09-09T19:02:48;13.17;;;7.50;;
31061;SDS011;17724;53.546;9.974;2022-09-09T19:06:51;12.40;;;5.67;;
31061;SDS011;17724;53.546;9.974;2022-09-09T19:10:59;12.57;;;6.10;;
31061;SDS011;17724;53.546;9.974;2022-09-09T19:15:01;13.40;;;7.27;;
31061;SDS011;17724;53.546;9.974;2022-09-09T19:19:03;13.10;;;6.70;;
31061;SDS011;17724;53.546;9.974;2022-09-09T19:23:05;13.87;;;6.60;;
31061;SDS011;17724;53.546;9.974;2022-09-09T19:27:06;18.87;;;7.13;;
31061;SDS011;17724;53.546;9.974;2022-09-09T19:31:07;13.33;;;6.00;;
31061;SDS011;17724;53.546;9.974;2022-09-09T19:35:09;11.40;;;5.70;;
31061;SDS011;17724;53.546;9.974;2022-09-09T19:39:10;11.80;;;5.23;;
31061;SDS011;17724;53.546;9.974;2022-09-09T19:43:10;13.73;;;9.37;;
31061;SDS011;17724;53.546;9.974;2022-09-09T19:47:11;11.97;;;5.97;;
31061;SDS011;17724;53.546;9.974;2022-09-09T19:51:14;14.60;;;5.13;;
31061;SDS011;17724;53.546;9.974;2022-09-09T19:55:16;13.47;;;6.37;;
31061;SDS011;17724;53.546;9.974;2022-09-09T19:59:17;11.50;;;5.50;;
31061;SDS011;17724;53.546;9.974;2022-09-09T20:03:18;12.40;;;5.90;;
31061;SDS011;17724;53.546;9.974;2022-09-09T20:07:18;10.57;;;5.07;;
31061;SDS011;17724;53.546;9.974;2022-09-09T20:11:19;11.43;;;5.57;;
31061;SDS011;17724;53.546;9.974;2022-09-09T20:15:19;12.73;;;4.40;;
31061;SDS011;17724;53.546;9.974;2022-09-09T20:19:20;10.40;;;5.40;;
31061;SDS011;17724;53.546;9.974;2022-09-09T20:23:21;12.80;;;5.03;;
31061;SDS011;17724;53.546;9.974;2022-09-09T20:27:21;14.83;;;7.00;;
31061;SDS011;17724;53.546;9.974;2022-09-09T20:31:25;17.63;;;9.17;;
31061;SDS011;17724;53.546;9.974;2022-09-09T20:35:27;11.30;;;4.77;;
31061;SDS011;17724;53.546;9.974;2022-09-09T20:39:28;11.40;;;4.33;;
31061;SDS011;17724;53.546;9.974;2022-09-09T20:43:29;9.83;;;4.87;;
31061;SDS011;17724;53.546;9.974;2022-09-09T20:47:30;11.83;;;4.43;;
31061;SDS011;17724;53.546;9.974;2022-09-09T20:51:32;10.40;;;4.03;;
31061;SDS011;17724;53.546;9.974;2022-09-09T20:55:34;10.30;;;4.67;;
31061;SDS011;17724;53.546;9.974;2022-09-09T20:59:34;13.83;;;7.23;;
31061;SDS011;17724;53.546;9.974;2022-09-09T21:03:35;10.17;;;4.20;;
31061;SDS011;17724;53.546;9.974;2022-09-09T21:07:36;11.90;;;4.77;;
31061;SDS011;17724;53.546;9.974;2022-09-09T21:11:36;10.43;;;3.37;;
31061;SDS011;17724;53.546;9.974;2022-09-09T21:15:37;11.10;;;3.40;;
31061;SDS011;17724;53.546;9.974;2022-09-09T21:19:37;10.50;;;3.17;;
31061;SDS011;17724;53.546;9.974;2022-09-09T21:23:37;19.27;;;14.03;;
31061;SDS011;17724;53.546;9.974;2022-09-09T21:27:38;14.13;;;5.30;;
31061;SDS011;17724;53.546;9.974;2022-09-09T21:31:38;10.87;;;5.37;;
31061;SDS011;17724;53.546;9.974;2022-09-09T21:35:39;11.40;;;5.27;;
31061;SDS011;17724;53.546;9.974;2022-09-09T21:39:40;12.27;;;6.13;;
31061;SDS011;17724;53.546;9.974;2022-09-09T21:43:42;9.90;;;3.80;;
31061;SDS011;17724;53.546;9.974;2022-09-09T21:47:43;10.50;;;3.80;;
31061;SDS011;17724;53.546;9.974;2022-09-09T21:51:45;9.87;;;3.23;;
31061;SDS011;17724;53.546;9.974;2022-09-09T21:55:47;9.23;;;3.20;;
31061;SDS011;17724;53.546;9.974;2022-09-09T21:59:48;7.90;;;1.50;;
31061;SDS011;17724;53.546;9.974;2022-09-09T22:03:48;10.30;;;2.93;;
31061;SDS011;17724;53.546;9.974;2022-09-09T22:07:48;9.77;;;2.57;;
31061;SDS011;17724;53.546;9.974;2022-09-09T22:11:49;9.60;;;2.53;;
31061;SDS011;17724;53.546;9.974;2022-09-09T22:15:51;9.00;;;2.30;;
31061;SDS011;17724;53.546;9.974;2022-09-09T22:19:51;9.80;;;2.60;;
31061;SDS011;17724;53.546;9.974;2022-09-09T22:23:53;9.63;;;2.67;;
31061;SDS011;17724;53.546;9.974;2022-09-09T22:27:55;9.97;;;3.57;;
31061;SDS011;17724;53.546;9.974;2022-09-09T22:31:56;8.30;;;2.07;;
31061;SDS011;17724;53.546;9.974;2022-09-09T22:35:57;8.93;;;2.20;;
31061;SDS011;17724;53.546;9.974;2022-09-09T22:39:57;9.10;;;2.27;;
31061;SDS011;17724;53.546;9.974;2022-09-09T22:43:58;9.33;;;2.50;;
31061;SDS011;17724;53.546;9.974;2022-09-09T22:47:59;10.67;;;2.57;;
31061;SDS011;17724;53.546;9.974;2022-09-09T22:52:00;10.63;;;2.87;;
31061;SDS011;17724;53.546;9.974;2022-09-09T22:56:02;10.00;;;2.77;;
31061;SDS011;17724;53.546;9.974;2022-09-09T23:00:04;11.43;;;3.20;;
31061;SDS011;17724;53.546;9.974;2022-09-09T23:04:08;10.00;;;3.17;;
31061;SDS011;17724;53.546;9.974;2022-09-09T23:08:08;9.73;;;3.10;;
31061;SDS011;17724;53.546;9.974;2022-09-09T23:12:09;10.00;;;3.00;;
31061;SDS011;17724;53.546;9.974;2022-09-09T23:16:20;9.23;;;3.03;;
31061;SDS011;17724;53.546;9.974;2022-09-09T23:20:22;9.70;;;3.10;;
31061;SDS011;17724;53.546;9.974;2022-09-09T23:24:25;9.00;;;2.63;;
31061;SDS011;17724;53.546;9.974;2022-09-09T23:28:28;9.80;;;2.97;;
31061;SDS011;17724;53.546;9.974;2022-09-09T23:32:31;8.70;;;2.80;;
31061;SDS011;17724;53.546;9.974;2022-09-09T23:36:32;10.50;;;3.50;;
31061;SDS011;17724;53.546;9.974;2022-09-09T23:40:33;9.90;;;2.60;;
31061;SDS011;17724;53.546;9.974;2022-09-09T23:44:34;12.23;;;2.90;;
31061;SDS011;17724;53.546;9.974;2022-09-09T23:48:36;10.27;;;3.40;;
31061;SDS011;17724;53.546;9.974;2022-09-09T23:52:37;10.70;;;4.30;;
31061;SDS011;17724;53.546;9.974;2022-09-09T23:56:42;9.37;;;3.20;;
